Latest Weather Observations for Onslow Airport

IDW60801

Issued at 1:53 pm WST Saturday 10 December 2022 (issued every 10 minutes, with the page automatically refreshed every 10 minutes)

About weather observations | Map of weather stations | Latest weather observations for WA | Other Formats
Station Details ID: 005017 Name: ONSLOW AIRPORT Lat: -21.67 Lon: 115.11 Height: 10.5 m
Data from the previous 72 hours. | See also: Recent months at Onslow Airport
Date/Time
WST
Temp
°C
App
Temp
°C
Dew
Point
°C
Rel
Hum
%
Delta-T
°C
Wind Press
QNH
hPa
Press
MSL
hPa
Rain since
9am
mm
Dir  Spd
km/h
Gust
km/h
Spd
kts
Gust
kts
10/01:30pm 35.8 34.8 17.9 34 11.6 WNW 20 28 11 15 1010.5 1010.4 0.0
10/01:00pm 34.8 34.0 18.4 38 10.7 NW 20 28 11 15 1010.9 1010.8 0.0
10/12:30pm 34.9 33.2 16.2 32 11.8 WNW 20 26 11 14 1011.1 1011.0 0.0
10/12:00pm 36.5 33.9 10.6 21 15.2 SW 15 20 8 11 1011.4 1011.3 0.0
10/11:30am 35.3 33.0 11.7 24 14.0 SW 15 24 8 13 1011.7 1011.6 0.0
10/11:00am 34.5 32.5 12.8 27 13.1 SE 15 22 8 12 1011.9 1011.8 0.0
10/10:30am 33.1 30.7 12.7 29 12.2 S 17 24 9 13 1012.1 1012.0 0.0
10/10:00am 31.4 28.6 12.7 32 11.1 SSE 19 24 10 13 1012.3 1012.2 0.0
10/09:30am 30.4 26.7 12.8 34 10.4 S 24 30 13 16 1012.3 1012.2 0.0
10/09:00am 28.9 25.7 13.2 38 9.3 S 22 28 12 15 1012.4 1012.3 0.0
10/08:30am 27.5 23.4 12.7 40 8.6 S 26 32 14 17 1012.3 1012.2 0.0
10/08:00am 26.4 22.1 13.2 44 7.7 S 28 33 15 18 1012.1 1012.0 0.0
10/07:30am 24.9 20.6 13.1 47 6.9 SSW 28 35 15 19 1011.9 1011.8 0.0
10/07:00am 23.7 19.0 13.3 52 6.0 SSW 30 35 16 19 1011.8 1011.7 0.0
10/06:30am 22.5 18.7 13.6 57 5.2 SSW 26 35 14 19 1011.6 1011.5 0.0
10/06:00am 21.8 18.6 14.2 62 4.4 SSW 24 32 13 17 1011.5 1011.4 0.0
10/05:30am 21.6 18.5 14.5 64 4.2 SSW 24 30 13 16 1011.3 1011.2 0.0
10/05:00am 21.7 18.7 14.8 65 4.1 SSW 24 30 13 16 1011.0 1010.9 0.0
10/04:30am 21.8 19.2 14.9 65 4.1 SSW 22 28 12 15 1010.9 1010.8 0.0
10/04:00am 22.0 18.5 14.6 63 4.4 SSW 26 33 14 18 1010.7 1010.6 0.0
10/03:30am 22.2 18.7 14.6 62 4.5 SSW 26 33 14 18 1010.6 1010.5 0.0
10/03:00am 22.6 19.6 14.7 61 4.7 SSW 24 33 13 18 1010.6 1010.5 0.0
10/02:30am 22.8 19.7 14.4 59 4.9 SSW 24 30 13 16 1010.6 1010.5 0.0
10/02:00am 22.9 19.4 14.5 59 5.0 SSW 26 30 14 16 1010.3 1010.2 0.0
10/01:30am 23.1 20.2 15.2 61 4.7 SW 24 33 13 18 1010.4 1010.3 0.0
10/01:00am 23.1 20.0 15.7 63 4.5 SW 26 33 14 18 1010.4 1010.3 0.0
10/12:30am 23.3 19.9 15.9 63 4.5 SW 28 35 15 19 1010.4 1010.3 0.0
10/12:00am 23.6 20.4 16.4 64 4.4 SW 28 37 15 20 1010.5 1010.4 0.0
 
Date/Time
WST
Temp
°C
App
Temp
°C
Dew
Point
°C
Rel
Hum
%
Delta-T
°C
Wind Press
QNH
hPa
Press
MSL
hPa
Rain since
9am
mm
Dir  Spd
km/h
Gust
km/h
Spd
kts
Gust
kts
09/11:30pm 23.9 20.9 16.7 64 4.4 SW 28 37 15 20 1010.7 1010.6 0.0
09/11:00pm 24.3 21.4 17.1 64 4.5 SW 28 39 15 21 1010.9 1010.8 0.0
09/10:30pm 24.9 22.3 16.9 61 4.9 SW 26 35 14 19 1010.9 1010.8 0.0
09/10:00pm 25.6 23.0 15.9 55 5.9 SW 24 33 13 18 1010.8 1010.7 0.0
09/09:30pm 26.3 23.7 16.0 53 6.3 SW 24 32 13 17 1010.6 1010.5 0.0
09/09:00pm 25.8 25.1 17.4 59 5.3 WSW 17 22 9 12 1010.4 1010.3 0.0
09/08:30pm 25.9 25.7 18.6 64 4.6 W 17 20 9 11 1010.3 1010.2 0.0
09/08:00pm 26.2 25.4 18.1 61 5.1 W 19 22 10 12 1010.0 1009.9 0.0
09/07:30pm 26.5 26.1 18.1 60 5.3 W 17 20 9 11 1009.9 1009.8 0.0
09/07:00pm 27.2 26.5 18.2 58 5.7 W 19 24 10 13 1009.6 1009.5 0.0
09/06:30pm 27.9 27.0 19.1 58 5.7 W 22 28 12 15 1009.4 1009.3 0.0
09/06:00pm 28.3 27.2 19.5 59 5.7 W 24 30 13 16 1009.1 1009.0 0.0
09/05:30pm 29.9 28.6 19.0 52 7.1 W 24 30 13 16 1009.0 1008.9 0.0
09/05:00pm 30.0 27.5 18.1 49 7.6 WNW 28 35 15 19 1009.0 1008.9 0.0
09/04:30pm 31.0 28.4 17.7 45 8.5 WNW 28 33 15 18 1009.0 1008.9 0.0
09/04:00pm 31.5 28.9 17.8 44 8.8 WNW 28 35 15 19 1009.0 1008.9 0.0
09/03:30pm 32.1 29.1 16.8 40 9.7 WNW 28 35 15 19 1009.2 1009.1 0.0
09/03:00pm 32.0 28.3 15.9 38 10.1 WNW 30 35 16 19 1009.4 1009.3 0.0
09/02:30pm 31.6 27.0 15.1 36 10.2 WNW 33 41 18 22 1009.5 1009.4 0.0
09/02:00pm 31.6 27.3 16.0 39 9.8 WNW 33 39 18 21 1009.8 1009.7 0.0
09/01:30pm 31.5 27.3 16.3 40 9.5 WNW 33 43 18 23 1009.9 1009.8 0.0
09/01:00pm 31.7 27.7 17.6 43 9.0 WNW 35 44 19 24 1010.1 1010.0 0.0
09/12:30pm 30.9 26.9 17.6 45 8.5 WNW 35 43 19 23 1010.4 1010.3 0.0
09/12:00pm 31.6 27.5 16.0 39 9.7 WNW 32 39 17 21 1010.6 1010.5 0.0
09/11:30am 31.5 28.9 13.7 33 10.7 W 20 30 11 16 1011.0 1010.9 0.0
09/11:00am 31.2 28.8 13.9 35 10.5 SW 19 32 10 17 1011.2 1011.1 0.0
09/10:30am 29.5 27.0 14.1 39 9.3 SW 20 33 11 18 1011.5 1011.4 0.0
09/10:00am 28.7 26.7 14.9 43 8.4 SW 19 28 10 15 1011.7 1011.6 0.0
09/09:30am 27.9 26.3 14.9 45 7.9 SW 17 24 9 13 1011.8 1011.7 0.0
09/09:00am 27.2 25.3 15.2 47 7.3 SW 19 28 10 15 1011.7 1011.6 0.0
09/08:30am 26.0 23.8 14.8 50 6.7 SW 20 28 11 15 1011.6 1011.5 0.0
09/08:00am 25.3 22.9 15.3 54 6.0 SSW 22 30 12 16 1011.7 1011.6 0.0
09/07:30am 23.6 20.3 15.1 59 5.1 SSW 26 35 14 19 1011.5 1011.4 0.0
09/07:00am 22.9 20.0 16.0 65 4.2 SSW 26 33 14 18 1011.1 1011.0 0.0
09/06:30am 21.8 18.9 16.1 70 3.4 SW 26 35 14 19 1010.9 1010.8 0.0
09/06:00am 21.2 18.7 16.2 73 3.0 SW 24 33 13 18 1010.4 1010.3 0.0
09/05:30am 21.1 18.2 16.1 73 3.0 SW 26 35 14 19 1010.0 1009.9 0.0
09/05:00am 21.2 18.5 15.7 71 3.3 SW 24 32 13 17 1009.8 1009.7 0.0
09/04:30am 21.5 19.2 15.8 70 3.4 SW 22 30 12 16 1009.6 1009.5 0.0
09/04:00am 21.7 19.1 15.8 69 3.5 SW 24 32 13 17 1009.5 1009.4 0.0
09/03:30am 21.9 19.6 15.7 68 3.7 SW 22 30 12 16 1009.2 1009.1 0.0
09/03:00am 22.1 19.9 15.9 68 3.7 SW 22 32 12 17 1009.1 1009.0 0.0
09/02:30am 22.3 19.8 16.1 68 3.7 WSW 24 30 13 16 1009.1 1009.0 0.0
09/02:00am 22.4 20.3 16.2 68 3.8 WSW 22 30 12 16 1009.1 1009.0 0.0
09/01:30am 22.6 20.6 16.4 68 3.8 SW 22 28 12 15 1009.1 1009.0 0.0
09/01:00am 22.8 20.9 16.6 68 3.8 SW 22 33 12 18 1009.2 1009.1 0.0
09/12:30am 23.0 21.3 17.2 70 3.6 SW 22 30 12 16 1009.4 1009.3 0.0
09/12:00am 23.3 20.6 17.5 70 3.6 SW 28 37 15 20 1009.6 1009.5 0.0
 
Date/Time
WST
Temp
°C
App
Temp
°C
Dew
Point
°C
Rel
Hum
%
Delta-T
°C
Wind Press
QNH
hPa
Press
MSL
hPa
Rain since
9am
mm
Dir  Spd
km/h
Gust
km/h
Spd
kts
Gust
kts
08/11:30pm 23.5 21.3 17.9 71 3.5 SW 26 35 14 19 1009.7 1009.6 0.0
08/11:00pm 23.9 21.5 17.4 67 4.0 SW 26 35 14 19 1010.1 1010.0 0.0
08/10:30pm 24.2 21.4 17.4 65 4.2 SW 28 39 15 21 1010.1 1010.0 0.0
08/10:00pm 24.9 21.0 16.9 61 4.9 SW 33 43 18 23 1010.0 1009.9 0.0
08/09:30pm 25.7 21.8 16.5 56 5.7 SW 32 43 17 23 1009.8 1009.7 0.0
08/09:00pm 26.3 23.7 16.0 53 6.3 WSW 24 35 13 19 1009.8 1009.7 0.0
08/08:30pm 27.2 23.9 14.9 47 7.4 WSW 26 39 14 21 1009.5 1009.4 0.0
08/08:00pm 27.8 24.4 14.8 45 7.9 WSW 26 35 14 19 1009.0 1008.9 0.0
08/07:30pm 28.7 26.1 14.9 43 8.4 WSW 22 35 12 19 1008.6 1008.5 0.0
08/07:00pm 28.3 27.1 18.4 55 6.3 W 22 28 12 15 1008.2 1008.1 0.0
08/06:30pm 29.5 27.5 18.3 51 7.2 W 26 33 14 18 1007.7 1007.6 0.0
08/06:00pm 30.8 27.4 17.8 45 8.3 W 32 39 17 21 1007.2 1007.1 0.0
08/05:30pm 31.6 29.1 18.9 47 8.3 W 30 39 16 21 1006.8 1006.7 0.0
08/05:00pm 30.2 28.0 20.7 56 6.3 W 33 41 18 22 1006.7 1006.6 0.0
08/04:30pm 31.5 27.1 18.5 46 8.4 W 39 46 21 25 1006.9 1006.8 0.0
08/04:00pm 32.1 28.4 18.3 44 8.9 W 35 46 19 25 1007.1 1007.0 0.0
08/03:30pm 32.5 28.6 17.9 41 9.4 W 35 43 19 23 1007.3 1007.2 0.0
08/03:00pm 33.0 29.9 18.4 42 9.5 WNW 32 39 17 21 1007.5 1007.4 0.0
08/02:30pm 34.4 33.4 17.6 36 10.8 WSW 19 30 10 16 1007.7 1007.6 0.0
08/02:00pm 35.3 32.6 12.9 26 13.6 SW 19 32 10 17 1008.2 1008.1 0.0
08/01:30pm 34.6 31.5 12.3 26 13.3 SW 20 30 11 16 1008.5 1008.4 0.0
08/01:00pm 34.2 31.7 13.6 28 12.6 SSW 19 28 10 15 1009.0 1008.9 0.0
08/12:30pm 33.6 31.1 14.1 30 11.9 SSW 20 35 11 19 1009.3 1009.2 0.0
08/12:00pm 32.3 29.2 13.5 32 11.4 SSW 22 30 12 16 1009.9 1009.8 0.0
08/11:30am 31.4 28.5 14.1 35 10.5 SSW 22 33 12 18 1010.3 1010.2 0.0
08/11:00am 30.5 27.1 13.7 35 10.1 SSW 24 33 13 18 1010.8 1010.7 0.0
08/10:30am 29.4 25.7 14.0 39 9.3 SSW 26 33 14 18 1011.1 1011.0 0.0
08/10:00am 28.8 25.7 14.6 42 8.6 SSW 24 32 13 17 1011.4 1011.3 0.0
08/09:30am 27.3 24.4 15.0 47 7.4 SSW 24 33 13 18 1011.7 1011.6 0.0
08/09:00am 26.5 22.8 14.9 49 7.0 SSW 28 35 15 19 1011.8 1011.7 0.0
08/08:30am 25.6 21.4 14.7 51 6.5 SSW 30 37 16 20 1011.9 1011.8 0.0
08/08:00am 24.2 20.0 14.6 55 5.7 SSW 30 39 16 21 1011.8 1011.7 0.0
08/07:30am 23.6 20.1 15.6 61 4.8 SSW 28 35 15 19 1011.8 1011.7 0.0
08/07:00am 22.6 20.5 16.2 67 3.9 SSW 22 33 12 18 1011.7 1011.6 0.0
08/06:30am 21.5 20.2 15.8 70 3.4 SW 17 24 9 13 1011.3 1011.2 0.0
08/06:00am 20.7 18.9 15.5 72 3.1 SW 19 24 10 13 1010.9 1010.8 0.0
08/05:30am 20.5 18.4 15.3 72 3.1 SSW 20 26 11 14 1010.1 1010.0 0.0
08/05:00am 20.6 18.5 15.2 71 3.2 SSW 20 26 11 14 1009.8 1009.7 0.0
08/04:30am 20.9 19.0 15.2 70 3.4 SSW 19 22 10 12 1009.4 1009.3 0.0
08/04:00am 21.1 18.6 15.2 69 3.5 SSW 22 26 12 14 1009.2 1009.1 0.0
08/03:30am 21.2 19.1 15.1 68 3.6 SSW 20 26 11 14 1009.1 1009.0 0.0
08/03:00am 21.4 18.8 15.0 67 3.8 SSW 22 30 12 16 1008.9 1008.8 0.0
08/02:30am 21.6 18.7 15.0 66 3.9 SSW 24 32 13 17 1008.8 1008.7 0.0
08/02:00am 21.7 18.4 15.1 66 3.9 SW 26 33 14 18 1008.8 1008.7 0.0
08/01:30am 22.1 18.6 14.5 62 4.5 SSW 26 37 14 20 1008.9 1008.8 0.0
08/01:00am 22.5 18.9 14.1 59 4.9 SSW 26 35 14 19 1009.1 1009.0 0.0
08/12:30am 22.6 19.1 15.4 64 4.3 SW 28 35 15 19 1009.3 1009.2 0.0
08/12:00am 22.8 19.9 16.1 66 4.1 SW 26 35 14 19 1009.6 1009.5 0.0
 
Date/Time
WST
Temp
°C
App
Temp
°C
Dew
Point
°C
Rel
Hum
%
Delta-T
°C
Wind Press
QNH
hPa
Press
MSL
hPa
Rain since
9am
mm
Dir  Spd
km/h
Gust
km/h
Spd
kts
Gust
kts
07/11:30pm 22.9 19.7 16.4 66 4.0 SW 28 35 15 19 1009.7 1009.6 0.0
07/11:00pm 23.4 19.5 16.4 64 4.3 SW 32 41 17 22 1010.0 1009.9 0.0
07/10:30pm 23.8 20.5 17.1 66 4.1 SW 30 43 16 23 1010.0 1009.9 0.0
07/10:00pm 24.4 20.8 17.1 63 4.5 SW 32 41 17 22 1009.9 1009.8 0.0
07/09:30pm 24.9 21.2 16.9 61 4.9 SW 32 41 17 22 1009.8 1009.7 0.0
07/09:00pm 25.6 22.1 16.5 57 5.6 SW 30 39 16 21 1009.5 1009.4 0.0
07/08:30pm 25.8 23.9 17.7 61 5.1 WSW 24 35 13 19 1009.3 1009.2 0.0
07/08:00pm 25.4 23.5 20.9 76 3.0 W 32 41 17 22 1009.1 1009.0 0.0
07/07:30pm 25.3 23.2 20.5 75 3.1 W 32 41 17 22 1008.9 1008.8 0.0
07/07:00pm 25.1 22.6 19.7 72 3.5 W 32 41 17 22 1008.7 1008.6 0.0
07/06:30pm 25.3 22.0 20.1 73 3.4 WNW 37 46 20 25 1008.3 1008.2 0.0
07/06:00pm 25.9 23.5 21.1 75 3.2 W 35 44 19 24 1008.0 1007.9 0.0
07/05:30pm 26.5 23.5 20.6 70 3.9 WNW 37 48 20 26 1007.5 1007.4 0.0
07/05:00pm 26.8 23.3 20.4 68 4.2 WNW 39 46 21 25 1007.3 1007.2 0.0
07/04:30pm 27.2 24.4 20.3 66 4.5 WNW 35 43 19 23 1007.1 1007.0 0.0
07/04:00pm 27.8 24.7 20.4 64 4.9 WNW 37 44 20 24 1007.1 1007.0 0.0
07/03:30pm 29.6 26.5 19.6 55 6.5 WNW 35 44 19 24 1007.1 1007.0 0.0
07/03:00pm 29.3 26.3 19.9 57 6.2 WNW 35 43 19 23 1007.1 1007.0 0.0
07/02:30pm 30.0 26.1 18.8 51 7.2 WNW 37 46 20 25 1007.4 1007.3 0.0
07/02:00pm 29.7 25.4 17.8 48 7.6 WNW 37 44 20 24 1007.6 1007.5 0.0

Other formats

Comma delimited format used in spreadsheet applications
http://www.bom.gov.au/fwo/IDW60801/IDW60801.95305.axf

JavaScript Object Notation format (JSON) in row-major order
http://www.bom.gov.au/fwo/IDW60801/IDW60801.95305.json

Data quality

Most of these data are generated automatically and are frequently updated. Quality checks on data are not normally performed. It is possible for incorrect values to appear. Refer to information at About Latest Weather Observations and please check the disclaimer before using these data.